This is the latest recevied weather packets stored in our database for station/object GW1601. If no packets are shown the sender has not sent any weather packets the latest 10 day(s).
| Time | Temp. | Humidity | Pressure | Rain* | Wind** | Luminosity | Snow |
|---|---|---|---|---|---|---|---|
| 1777760494 | 9.44° C | 59% | 991.5 hPa | 0 mm | - | - | - |
| 1777759778 | 8.89° C | 59% | 991.1 hPa | 0 mm | - | - | - |
| 1777755792 | 10° C | 58% | 991.1 hPa | 0 mm | - | - | - |
| 1777755434 | 9.44° C | 62% | 990.8 hPa | 0 mm | - | - | - |
| 1777753284 | 10.56° C | 54% | 991.1 hPa | 0 mm | - | - | - |
| 1777748971 | 11.67° C | 48% | 991.5 hPa | 0 mm | - | - | - |
| 1777743230 | 10.56° C | 47% | 991.5 hPa | 0 mm | - | - | - |
| 1777740341 | 11.11° C | 47% | 991.8 hPa | 0 mm | - | - | - |
| 1777739970 | 11.11° C | 47% | 991.8 hPa | 0 mm | - | - | - |
| 1777736750 | 11.11° C | 46% | 992.2 hPa | 0 mm | - | - | - |
| 1777733504 | 10° C | 51% | 992.2 hPa | 0 mm | - | - | - |
| 1777729880 | 8.89° C | 63% | 991.8 hPa | 0 mm | - | - | - |
| 1777729515 | 8.33° C | 70% | 991.8 hPa | 0 mm | - | - | - |
| 1777727713 | 6.11° C | 84% | 992.2 hPa | 0 mm | - | - | - |
| 1777725575 | 3.33° C | 99% | 992.2 hPa | 0 mm | - | - | - |
| 1777724847 | 2.78° C | 99% | 991.8 hPa | 0 mm | - | - | - |
| 1777723763 | 2.22° C | 99% | 992.2 hPa | 0 mm | - | - | - |
| 1777721617 | 0° C | 99% | 992.2 hPa | 0 mm | - | - | - |
| 1777720521 | -0.56° C | 99% | 991.8 hPa | 0 mm | - | - | - |
| 1777719111 | -1.11° C | 99% | 991.8 hPa | 0 mm | - | - | - |
| 1777718384 | -0.56° C | 99% | 991.8 hPa | 0 mm | - | - | - |
| 1777715864 | -0.56° C | 99% | 991.5 hPa | 0 mm | - | - | - |
| 1777715125 | -0.56° C | 99% | 991.8 hPa | 0 mm | - | - | - |
| 1777714411 | -0.56° C | 99% | 991.8 hPa | 0 mm | - | - | - |
| 1777713351 | 0° C | 99% | 992.2 hPa | 0 mm | - | - | - |
* Rain since midnight (hover to see other rain measurements)
** Current wind speed in m/s (hover to see current wind gust speed)